Terminal Aerodrome Forecast
Issued by NWS Hastings, NE

Home | Current Version | Previous Version | Text Only | Print | Product List | Glossary On
Versions: 1 2 3 4 5 6 7 8 9 10 11 12 13 14 15 16 17 18
635
FTUS45 KGID 120127 AAA
TAFEAR
TAF AMD
KEAR 120127Z 1201/1224 24011KT P6SM SCT100
     FM120200 27011KT P6SM SCT100
     FM120500 35015KT 3SM BR OVC010
     FM121500 01012KT P6SM OVC008
     FM122000 03009KT P6SM OVC015
      AMD LTD TO CLD VIS AND WIND=

USA.gov is the U.S. government's official web portal to all federal, state and local government web resources and services.